Rechercher aéroport 
image banner adimage banner adimage banner ad
image banner ad

PN42 - Practice Football Field

Situé à Indiana, United States

ICAO - PN42, IATA -

Données fournies par Airmate  

Information générale

Coordonnées: N40°37'30" W79°8'59"
Élévation : 1400 feet MSL.
Variation magnétique : -08° East
Voir autres Aéroports à Pennsylvania

Données opérationnelles

Special qualification required
Heure actuelle UTC:
Heure actuelle locale:
METAR: KIDI 150715Z AUTO 00000KT 1/2SM BR OVC001 13/13 A2992 RMK A01
Voir NOTAMs / SUP AIP / TFR affectant cet aéroport [VIEW]
Fréquences de communication: [VIEW]

Pistes:

Coordonnées de l'aéroport

Adresse: Indiana United States

Vue satellite de PN42